createdAt,value
2018-05-06T00:01:13.741Z,17.68
2018-05-06T00:03:41.852Z,17.08
2018-05-06T00:06:09.899Z,17.21
2018-05-06T00:08:37.881Z,16.86
2018-05-06T00:11:05.897Z,16.55
2018-05-06T00:13:33.916Z,16.70
2018-05-06T00:16:02.031Z,17.32
2018-05-06T00:18:30.119Z,17.41
2018-05-06T00:20:58.219Z,15.85
2018-05-06T00:23:26.316Z,15.96
2018-05-06T00:25:54.287Z,16.29
2018-05-06T00:28:22.255Z,15.83
2018-05-06T00:30:50.223Z,16.24
2018-05-06T00:33:18.736Z,16.73
2018-05-06T00:35:47.318Z,16.37
2018-05-06T00:38:15.474Z,16.14
2018-05-06T00:40:43.499Z,16.87
2018-05-06T00:43:11.501Z,16.79
2018-05-06T00:45:39.452Z,16.43
2018-05-06T00:48:07.495Z,15.84
2018-05-06T00:50:36.150Z,16.06
2018-05-06T00:53:04.941Z,16.22
2018-05-06T00:55:33.444Z,16.67
2018-05-06T00:58:02.149Z,16.57
2018-05-06T01:00:30.895Z,16.66
2018-05-06T01:02:59.373Z,16.53
2018-05-06T01:05:27.898Z,16.15
2018-05-06T01:07:56.240Z,16.18
2018-05-06T01:10:24.473Z,16.11
2018-05-06T01:12:52.887Z,16.31
2018-05-06T01:15:21.568Z,16.53
2018-05-06T01:17:49.966Z,16.04
2018-05-06T01:20:18.438Z,16.41
2018-05-06T01:22:47.209Z,16.53
2018-05-06T01:25:15.991Z,16.20
2018-05-06T01:27:44.795Z,16.08
2018-05-06T01:30:13.220Z,16.44
2018-05-06T01:32:41.642Z,15.81
2018-05-06T01:35:10.298Z,16.27
2018-05-06T01:37:38.730Z,16.67
2018-05-06T01:40:07.519Z,16.54
2018-05-06T01:42:36.280Z,16.64
2018-05-06T01:45:04.282Z,16.82
2018-05-06T01:47:32.334Z,16.66
2018-05-06T01:50:00.299Z,15.93
2018-05-06T01:52:28.284Z,15.74
2018-05-06T01:54:56.437Z,16.40
2018-05-06T01:57:25.157Z,16.55
2018-05-06T01:59:53.601Z,16.41
2018-05-06T02:02:21.618Z,16.37
2018-05-06T02:04:49.650Z,16.41
2018-05-06T02:07:17.698Z,16.74
2018-05-06T02:09:45.755Z,16.76
2018-05-06T02:12:13.750Z,17.01
2018-05-06T02:14:41.812Z,17.08
2018-05-06T02:17:09.762Z,17.14
2018-05-06T02:19:37.719Z,16.85
2018-05-06T02:22:05.773Z,17.11
2018-05-06T02:24:33.743Z,16.75
2018-05-06T02:27:02.194Z,16.80
2018-05-06T02:29:30.141Z,16.59
2018-05-06T02:31:58.199Z,16.93
2018-05-06T02:34:26.274Z,16.94
2018-05-06T02:36:54.242Z,16.78
2018-05-06T02:39:22.208Z,16.81
2018-05-06T02:41:50.218Z,16.66
2018-05-06T02:44:18.259Z,16.69
2018-05-06T02:46:46.259Z,16.40
2018-05-06T02:49:14.286Z,15.94
2018-05-06T02:51:42.299Z,16.05
2018-05-06T02:54:10.338Z,15.57
2018-05-06T02:56:38.351Z,15.21
2018-05-06T02:59:06.358Z,14.94
2018-05-06T03:01:34.381Z,15.04
2018-05-06T03:04:02.373Z,15.24
2018-05-06T03:06:30.315Z,15.67
2018-05-06T03:08:58.268Z,15.68
2018-05-06T03:11:26.237Z,15.41
2018-05-06T03:13:54.190Z,15.94
2018-05-06T03:16:22.228Z,16.29
2018-05-06T03:18:50.159Z,16.43
2018-05-06T03:21:18.166Z,15.84
2018-05-06T03:23:46.199Z,16.09
2018-05-06T03:26:14.165Z,15.70
2018-05-06T03:28:42.430Z,15.36
2018-05-06T03:31:10.452Z,16.21
2018-05-06T03:33:38.470Z,15.77
2018-05-06T03:36:06.516Z,15.83
2018-05-06T03:38:35.115Z,15.85
2018-05-06T03:41:03.587Z,16.18
2018-05-06T03:43:32.385Z,16.48
2018-05-06T03:46:00.840Z,16.65
2018-05-06T03:48:29.280Z,16.85
2018-05-06T03:50:57.925Z,17.06
2018-05-06T03:53:26.493Z,17.17
2018-05-06T03:59:16.054Z,17.36
2018-05-06T04:01:44.225Z,17.53
2018-05-06T04:04:12.654Z,17.65
2018-05-06T04:06:41.911Z,17.49
2018-05-06T04:09:10.519Z,17.42
2018-05-06T04:11:38.544Z,17.40
2018-05-06T04:14:06.496Z,17.74
2018-05-06T04:16:34.487Z,17.57
2018-05-06T04:19:02.474Z,17.95
2018-05-06T04:21:30.547Z,17.60
2018-05-06T04:23:58.540Z,17.89
2018-05-06T04:26:26.531Z,17.67
2018-05-06T04:28:54.910Z,18.27
2018-05-06T04:31:22.929Z,18.46
2018-05-06T04:33:50.895Z,18.58
2018-05-06T04:36:18.921Z,18.39
2018-05-06T04:38:47.153Z,18.50
2018-05-06T04:41:15.131Z,18.93
2018-05-06T04:43:43.190Z,18.70
2018-05-06T04:46:11.252Z,18.36
2018-05-06T04:48:39.271Z,18.09
2018-05-06T04:51:07.535Z,18.39
2018-05-06T04:53:35.549Z,18.04
2018-05-06T04:56:03.491Z,18.59
2018-05-06T04:58:31.553Z,19.00
2018-05-06T05:00:59.568Z,19.18
2018-05-06T05:03:27.621Z,19.10
2018-05-06T05:05:55.607Z,19.07
2018-05-06T05:08:23.623Z,18.93
2018-05-06T05:10:51.543Z,18.67
2018-05-06T05:13:19.525Z,19.02
2018-05-06T05:15:47.582Z,19.52
2018-05-06T05:18:16.240Z,19.39
2018-05-06T05:20:44.415Z,19.15
2018-05-06T05:23:12.363Z,18.59
2018-05-06T05:25:40.396Z,18.13
2018-05-06T05:28:08.415Z,18.09
2018-05-06T05:30:37.080Z,18.48
2018-05-06T05:33:05.051Z,18.15
2018-05-06T05:35:33.108Z,18.11
2018-05-06T05:38:01.075Z,18.22
2018-05-06T05:40:29.098Z,18.47
2018-05-06T05:42:57.041Z,19.31
2018-05-06T05:45:25.183Z,19.92
2018-05-06T05:47:53.216Z,19.60
2018-05-06T05:50:21.246Z,19.11
2018-05-06T05:52:49.272Z,19.88
2018-05-06T05:55:17.334Z,20.05
2018-05-06T05:57:45.321Z,20.59
2018-05-06T06:00:13.257Z,20.79
2018-05-06T06:02:41.337Z,20.85
2018-05-06T06:05:09.309Z,21.29
2018-05-06T06:07:37.389Z,21.55
2018-05-06T06:10:05.370Z,21.33
2018-05-06T06:12:33.457Z,21.42
2018-05-06T06:15:01.686Z,21.04
2018-05-06T06:17:29.602Z,21.19
2018-05-06T06:19:57.618Z,21.93
2018-05-06T06:22:25.638Z,22.75
2018-05-06T06:24:53.619Z,22.82
2018-05-06T06:27:21.620Z,22.31
2018-05-06T06:29:49.622Z,22.43
2018-05-06T06:32:17.944Z,22.87
2018-05-06T06:34:46.012Z,23.23
2018-05-06T06:37:14.045Z,23.26
2018-05-06T06:39:42.084Z,24.02
2018-05-06T06:42:10.132Z,23.32
2018-05-06T06:44:38.162Z,24.16
2018-05-06T06:47:06.191Z,24.71
2018-05-06T06:49:34.195Z,25.41
2018-05-06T06:52:02.236Z,24.91
2018-05-06T06:54:30.315Z,23.84
2018-05-06T06:56:58.451Z,24.06
2018-05-06T06:59:26.743Z,24.34
2018-05-06T07:01:55.743Z,24.73
2018-05-06T07:04:23.935Z,24.69
2018-05-06T07:06:51.955Z,24.46
2018-05-06T07:09:20.044Z,23.42
2018-05-06T07:11:48.215Z,24.80
2018-05-06T07:14:16.252Z,24.62
2018-05-06T07:16:44.319Z,24.87
2018-05-06T07:19:12.336Z,24.99
2018-05-06T07:21:40.345Z,23.90
2018-05-06T07:24:08.364Z,23.58
2018-05-06T07:26:36.428Z,23.82
2018-05-06T07:29:04.448Z,24.62
2018-05-06T07:31:32.450Z,24.51
2018-05-06T07:34:00.737Z,24.08
2018-05-06T07:36:28.831Z,23.30
2018-05-06T07:38:56.804Z,23.28
2018-05-06T07:41:24.852Z,24.29
2018-05-06T07:43:52.910Z,25.08
2018-05-06T07:46:20.874Z,25.58
2018-05-06T07:48:48.875Z,25.13
2018-05-06T07:51:16.917Z,24.90
2018-05-06T07:53:44.967Z,25.82
2018-05-06T07:56:12.934Z,25.76
2018-05-06T07:58:41.085Z,26.16
2018-05-06T08:01:09.237Z,27.48
2018-05-06T08:03:37.247Z,28.18
2018-05-06T08:06:05.354Z,27.95
2018-05-06T08:08:33.368Z,27.53
2018-05-06T08:11:01.370Z,28.44
2018-05-06T08:13:29.396Z,28.99
2018-05-06T08:15:57.365Z,29.01
2018-05-06T08:18:25.388Z,28.70
2018-05-06T08:20:53.383Z,28.10
2018-05-06T08:23:21.403Z,27.92
2018-05-06T08:25:49.420Z,28.19
2018-05-06T08:28:17.389Z,28.50
2018-05-06T08:30:45.542Z,28.61
2018-05-06T08:33:13.675Z,28.22
2018-05-06T08:35:42.115Z,27.73
2018-05-06T08:38:10.139Z,27.60
2018-05-06T08:40:38.226Z,27.85
2018-05-06T08:43:06.349Z,28.07
2018-05-06T08:45:34.392Z,27.83
2018-05-06T08:48:02.532Z,27.77
2018-05-06T08:50:30.518Z,27.87
2018-05-06T08:52:58.583Z,27.94
2018-05-06T08:55:26.643Z,27.83
2018-05-06T08:57:54.704Z,28.01
2018-05-06T09:00:22.810Z,27.70
2018-05-06T09:02:50.890Z,27.75
2018-05-06T09:05:18.951Z,26.82
2018-05-06T09:07:47.046Z,27.22
2018-05-06T09:10:15.120Z,28.56
2018-05-06T09:12:43.212Z,28.43
2018-05-06T09:15:11.259Z,28.79
2018-05-06T09:17:39.251Z,27.97
2018-05-06T09:20:07.270Z,28.51
2018-05-06T09:22:35.366Z,29.00
2018-05-06T09:25:03.578Z,29.91
2018-05-06T09:27:31.708Z,29.96
2018-05-06T09:29:59.870Z,29.62
2018-05-06T09:32:27.882Z,29.81
2018-05-06T09:34:56.007Z,31.36
2018-05-06T09:37:24.549Z,31.73
2018-05-06T09:39:52.651Z,31.94
2018-05-06T09:42:20.761Z,32.16
2018-05-06T09:44:48.965Z,32.17
2018-05-06T09:47:17.001Z,31.43
2018-05-06T09:49:45.085Z,30.75
2018-05-06T09:52:13.174Z,29.41
2018-05-06T09:54:41.403Z,30.11
2018-05-06T09:57:10.228Z,29.19
2018-05-06T09:59:38.332Z,29.62
2018-05-06T10:02:06.476Z,29.55
2018-05-06T10:04:34.593Z,29.52
2018-05-06T10:07:02.717Z,28.20
2018-05-06T10:09:30.884Z,28.60
2018-05-06T10:11:59.144Z,28.92
2018-05-06T10:14:27.248Z,29.04
2018-05-06T10:16:55.326Z,28.99
2018-05-06T10:19:23.445Z,29.27
2018-05-06T10:21:51.582Z,28.59
2018-05-06T10:24:19.684Z,28.56
2018-05-06T10:26:47.774Z,28.29
2018-05-06T10:29:15.847Z,27.82
2018-05-06T10:31:43.991Z,27.89
2018-05-06T10:34:12.069Z,28.14
2018-05-06T10:36:40.145Z,28.21
2018-05-06T10:39:08.467Z,27.05
2018-05-06T10:41:36.522Z,27.01
2018-05-06T10:44:04.684Z,27.53
2018-05-06T10:46:32.715Z,26.96
2018-05-06T10:49:00.878Z,26.93
2018-05-06T10:51:28.894Z,27.34
2018-05-06T10:53:56.995Z,27.53
2018-05-06T10:56:25.017Z,27.39
2018-05-06T10:58:53.074Z,25.75
2018-05-06T11:01:21.147Z,25.64
2018-05-06T11:03:49.201Z,25.44
2018-05-06T11:06:17.240Z,24.76
2018-05-06T11:08:45.388Z,25.08
2018-05-06T11:11:13.448Z,24.46
2018-05-06T11:13:41.459Z,24.34
2018-05-06T11:16:10.397Z,23.91
2018-05-06T11:18:38.528Z,23.98
2018-05-06T11:21:06.535Z,23.26
2018-05-06T11:23:34.639Z,23.15
2018-05-06T11:26:02.707Z,23.12
2018-05-06T11:28:30.718Z,23.58
2018-05-06T11:30:58.805Z,23.15
2018-05-06T11:33:26.933Z,23.00
2018-05-06T11:35:54.972Z,23.01
2018-05-06T11:38:22.951Z,22.53
2018-05-06T11:40:51.287Z,22.16
2018-05-06T11:43:19.353Z,21.95
2018-05-06T11:45:47.441Z,22.59
2018-05-06T11:48:15.457Z,22.99
2018-05-06T11:50:43.517Z,23.77
2018-05-06T11:53:11.554Z,24.58
2018-05-06T11:55:39.619Z,25.07
2018-05-06T11:58:07.696Z,25.63
2018-05-06T12:00:35.770Z,26.46
2018-05-06T12:03:03.873Z,27.32
2018-05-06T12:05:31.953Z,28.10
2018-05-06T12:08:00.145Z,27.56
2018-05-06T12:10:28.233Z,28.33
2018-05-06T12:12:56.389Z,29.00
2018-05-06T12:15:24.617Z,28.98
2018-05-06T12:17:52.710Z,28.02
2018-05-06T12:20:20.841Z,28.43
2018-05-06T12:22:49.081Z,28.57
2018-05-06T12:25:17.163Z,29.82
2018-05-06T12:27:45.259Z,30.88
2018-05-06T12:30:13.273Z,31.44
2018-05-06T12:32:41.346Z,32.25
2018-05-06T12:35:12.005Z,32.55
2018-05-06T12:37:40.018Z,32.86
2018-05-06T12:40:08.047Z,33.36
2018-05-06T12:42:36.334Z,33.24
2018-05-06T12:45:04.405Z,33.01
2018-05-06T12:47:32.559Z,34.04
2018-05-06T12:50:00.680Z,34.51
2018-05-06T12:52:28.621Z,32.73
2018-05-06T12:54:56.630Z,31.18
2018-05-06T12:57:24.670Z,30.33
2018-05-06T12:59:52.723Z,29.90
2018-05-06T13:02:20.837Z,28.99
2018-05-06T13:04:48.916Z,28.63
2018-05-06T13:07:17.063Z,28.92
2018-05-06T13:09:45.158Z,29.45
2018-05-06T13:12:13.333Z,29.41
2018-05-06T13:14:41.453Z,28.46
2018-05-06T13:17:09.438Z,29.32
2018-05-06T13:19:38.505Z,30.25
2018-05-06T13:22:06.641Z,30.43
2018-05-06T13:24:34.708Z,30.95
2018-05-06T13:27:02.779Z,31.95
2018-05-06T13:29:30.865Z,32.47
2018-05-06T13:31:58.989Z,31.52
2018-05-06T13:34:27.203Z,30.90
2018-05-06T13:36:55.228Z,30.51
2018-05-06T13:39:23.282Z,29.83
2018-05-06T13:41:51.386Z,29.17
2018-05-06T13:44:19.707Z,28.77
2018-05-06T13:46:47.759Z,28.43
2018-05-06T13:49:15.765Z,28.58
2018-05-06T13:51:43.763Z,28.62
2018-05-06T13:54:11.835Z,28.48
2018-05-06T13:56:39.933Z,27.81
2018-05-06T13:59:08.130Z,27.21
2018-05-06T14:01:36.193Z,26.87
2018-05-06T14:04:04.309Z,27.11
2018-05-06T14:06:32.385Z,26.72
2018-05-06T14:09:00.396Z,26.38
2018-05-06T14:11:28.467Z,26.40
2018-05-06T14:13:56.598Z,25.68
2018-05-06T14:16:24.711Z,25.62
2018-05-06T14:18:52.930Z,24.98
2018-05-06T14:21:20.933Z,25.23
2018-05-06T14:23:48.967Z,25.39
2018-05-06T14:26:16.950Z,25.56
2018-05-06T14:28:44.988Z,25.54
2018-05-06T14:31:12.974Z,26.35
2018-05-06T14:33:41.167Z,26.42
2018-05-06T14:36:09.240Z,25.88
2018-05-06T14:38:37.366Z,26.07
2018-05-06T14:41:05.429Z,26.45
2018-05-06T14:43:33.534Z,26.44
2018-05-06T14:46:01.898Z,26.54
2018-05-06T14:48:29.973Z,26.23
2018-05-06T14:50:58.024Z,25.41
2018-05-06T14:53:26.203Z,25.47
2018-05-06T14:55:54.398Z,24.87
2018-05-06T14:58:22.416Z,24.43
2018-05-06T15:00:50.435Z,24.95
2018-05-06T15:03:18.522Z,25.16
2018-05-06T15:05:46.683Z,24.92
2018-05-06T15:08:14.725Z,24.25
2018-05-06T15:10:42.811Z,24.19
2018-05-06T15:13:10.742Z,24.52
2018-05-06T15:15:39.074Z,24.02
2018-05-06T15:18:07.110Z,24.31
2018-05-06T15:20:35.120Z,23.93
2018-05-06T15:23:03.167Z,23.79
2018-05-06T15:25:31.154Z,23.61
2018-05-06T15:27:59.218Z,23.82
2018-05-06T15:30:27.210Z,23.27
2018-05-06T15:32:55.230Z,23.67
2018-05-06T15:35:23.262Z,23.48
2018-05-06T15:37:51.316Z,23.23
2018-05-06T15:40:19.383Z,23.19
2018-05-06T15:42:47.372Z,23.60
2018-05-06T15:45:15.389Z,24.01
2018-05-06T15:47:43.640Z,23.94
2018-05-06T15:50:11.757Z,23.50
2018-05-06T15:52:39.796Z,23.65
2018-05-06T15:55:07.821Z,23.89
2018-05-06T15:57:35.922Z,23.88
2018-05-06T16:00:04.059Z,23.90
2018-05-06T16:05:38.136Z,23.42
2018-05-06T16:08:06.213Z,23.78
2018-05-06T16:10:34.273Z,23.93
2018-05-06T16:13:02.380Z,22.93
2018-05-06T16:15:30.493Z,21.91
2018-05-06T16:17:58.619Z,21.75
2018-05-06T16:20:26.690Z,21.31
2018-05-06T16:22:54.660Z,20.84
2018-05-06T16:25:22.724Z,20.61
2018-05-06T16:27:50.739Z,20.31
2018-05-06T16:30:18.788Z,19.68
2018-05-06T16:32:46.897Z,19.25
2018-05-06T16:35:14.926Z,19.16
2018-05-06T16:37:42.971Z,19.20
2018-05-06T16:40:11.138Z,19.52
2018-05-06T16:42:39.277Z,19.25
2018-05-06T16:45:07.418Z,18.87
2018-05-06T16:47:35.488Z,18.48
2018-05-06T16:50:04.046Z,18.77
2018-05-06T16:52:32.226Z,18.73
2018-05-06T16:55:01.308Z,18.76
2018-05-06T16:57:29.464Z,18.64
2018-05-06T16:59:59.046Z,19.19
2018-05-06T17:02:27.322Z,19.70
2018-05-06T17:04:55.541Z,19.08
2018-05-06T17:07:25.071Z,19.63
2018-05-06T17:09:53.095Z,19.72
2018-05-06T17:12:21.173Z,19.70
2018-05-06T17:14:49.213Z,19.76
2018-05-06T17:17:17.229Z,19.61
2018-05-06T17:19:45.361Z,18.89
2018-05-06T17:22:13.449Z,19.35
2018-05-06T17:24:41.493Z,19.10
2018-05-06T17:27:09.582Z,19.54
2018-05-06T17:29:37.651Z,19.50
2018-05-06T17:32:05.804Z,19.20
2018-05-06T17:34:33.936Z,19.12
2018-05-06T17:37:02.437Z,19.50
2018-05-06T17:39:30.502Z,18.89
2018-05-06T17:41:58.604Z,18.89
2018-05-06T17:44:26.664Z,18.80
2018-05-06T17:46:54.759Z,19.02
2018-05-06T17:49:22.801Z,19.27
2018-05-06T17:51:51.097Z,19.38
2018-05-06T17:54:19.155Z,19.68
2018-05-06T17:56:47.191Z,19.24
2018-05-06T17:59:15.249Z,19.72
2018-05-06T18:01:43.385Z,19.69
2018-05-06T18:04:11.352Z,19.86
2018-05-06T18:06:39.398Z,19.89
2018-05-06T18:09:07.395Z,19.77
2018-05-06T18:11:35.415Z,19.60
2018-05-06T18:14:03.438Z,19.79
2018-05-06T18:16:31.521Z,19.46
2018-05-06T18:18:59.578Z,19.84
2018-05-06T18:21:27.683Z,20.09
2018-05-06T18:23:55.747Z,20.06
2018-05-06T18:26:23.786Z,19.89
2018-05-06T18:28:51.793Z,19.64
2018-05-06T18:31:19.870Z,19.51
2018-05-06T18:33:47.861Z,19.95
2018-05-06T18:36:15.865Z,20.02
2018-05-06T18:38:43.952Z,19.65
2018-05-06T18:41:11.974Z,19.53
2018-05-06T18:43:40.001Z,19.77
2018-05-06T18:46:08.085Z,19.41
2018-05-06T18:48:36.182Z,19.60
2018-05-06T18:51:04.252Z,19.17
2018-05-06T18:53:32.313Z,19.10
2018-05-06T18:56:00.347Z,19.40
2018-05-06T18:58:28.426Z,18.92
2018-05-06T19:00:56.608Z,19.10
2018-05-06T19:03:24.641Z,19.47
2018-05-06T19:05:53.805Z,19.29
2018-05-06T19:08:24.841Z,18.80
2018-05-06T19:10:53.861Z,18.43
2018-05-06T19:13:29.181Z,18.77
2018-05-06T19:15:57.867Z,19.30
2018-05-06T19:18:25.852Z,19.00
2018-05-06T19:20:53.924Z,18.79
2018-05-06T19:23:22.244Z,18.53
2018-05-06T19:25:51.507Z,18.49
2018-05-06T19:28:28.174Z,18.27
2018-05-06T19:30:56.272Z,18.62
2018-05-06T19:33:24.481Z,18.40
2018-05-06T19:35:54.161Z,18.31
2018-05-06T19:38:22.235Z,18.36
2018-05-06T19:40:50.332Z,18.75
2018-05-06T19:43:18.267Z,18.76
2018-05-06T19:45:46.355Z,18.97
2018-05-06T19:48:14.427Z,19.25
2018-05-06T19:50:42.486Z,19.08
2018-05-06T19:53:10.581Z,19.37
2018-05-06T19:55:39.033Z,19.61
2018-05-06T19:58:07.091Z,18.75
2018-05-06T20:00:35.115Z,18.80
2018-05-06T20:03:03.198Z,18.73
2018-05-06T20:05:31.211Z,18.87
2018-05-06T20:07:59.390Z,19.04
2018-05-06T20:10:27.500Z,18.96
2018-05-06T20:12:55.549Z,19.44
2018-05-06T20:15:23.530Z,19.56
2018-05-06T20:17:51.595Z,19.47
2018-05-06T20:20:19.621Z,19.58
2018-05-06T20:22:47.665Z,19.17
2018-05-06T20:25:15.721Z,18.56
2018-05-06T20:27:43.711Z,19.04
2018-05-06T20:30:11.811Z,18.81
2018-05-06T20:32:39.865Z,18.65
2018-05-06T20:35:07.967Z,18.56
2018-05-06T20:37:36.059Z,18.51
2018-05-06T20:40:04.145Z,18.68
2018-05-06T20:42:32.202Z,18.76
2018-05-06T20:45:00.288Z,18.65
2018-05-06T20:47:28.304Z,18.76
2018-05-06T20:49:56.322Z,18.71
2018-05-06T20:52:25.514Z,18.54
2018-05-06T20:54:53.530Z,18.58
2018-05-06T20:57:21.968Z,18.95
2018-05-06T20:59:50.058Z,18.92
2018-05-06T21:02:18.157Z,18.88
2018-05-06T21:04:46.255Z,18.78
2018-05-06T21:07:14.416Z,18.74
2018-05-06T21:09:42.419Z,19.24
2018-05-06T21:12:10.445Z,19.47
2018-05-06T21:14:38.501Z,18.75
2018-05-06T21:17:06.581Z,18.82
2018-05-06T21:19:34.607Z,18.69
2018-05-06T21:22:02.783Z,19.26
2018-05-06T21:24:30.816Z,19.62
2018-05-06T21:26:58.890Z,19.52
2018-05-06T21:29:26.987Z,19.36
2018-05-06T21:31:55.100Z,18.56
2018-05-06T21:34:23.198Z,18.39
2018-05-06T21:36:51.379Z,18.93
2018-05-06T21:39:19.391Z,18.81
2018-05-06T21:41:47.430Z,18.48
2018-05-06T21:44:15.431Z,18.51
2018-05-06T21:46:43.454Z,18.33
2018-05-06T21:49:11.476Z,18.60
2018-05-06T21:51:39.539Z,18.64
2018-05-06T21:54:07.535Z,18.82
2018-05-06T21:56:35.557Z,19.01
2018-05-06T21:59:03.945Z,18.79
2018-05-06T22:01:32.036Z,18.76
2018-05-06T22:04:00.031Z,18.87
2018-05-06T22:06:28.204Z,18.78
2018-05-06T22:08:56.247Z,18.95
2018-05-06T22:11:24.354Z,19.24
2018-05-06T22:13:52.451Z,19.60
2018-05-06T22:16:20.533Z,19.23
2018-05-06T22:18:48.586Z,19.59
2018-05-06T22:21:16.591Z,19.64
2018-05-06T22:23:44.604Z,19.86
2018-05-06T22:26:12.643Z,19.84
2018-05-06T22:28:40.664Z,19.71
2018-05-06T22:31:08.741Z,19.51
2018-05-06T22:33:36.775Z,19.29
2018-05-06T22:36:04.902Z,19.28
2018-05-06T22:38:32.941Z,18.96
2018-05-06T22:41:01.009Z,19.54
2018-05-06T22:43:29.067Z,18.94
2018-05-06T22:45:57.186Z,19.04
2018-05-06T22:48:25.229Z,19.01
2018-05-06T22:50:53.303Z,19.03
2018-05-06T22:53:21.360Z,18.82
2018-05-06T22:55:49.611Z,18.98
2018-05-06T22:58:17.701Z,18.99
2018-05-06T23:00:48.091Z,18.76
2018-05-06T23:03:17.231Z,18.85
2018-05-06T23:05:45.317Z,19.02
2018-05-06T23:08:13.315Z,18.91
2018-05-06T23:10:41.352Z,18.95
2018-05-06T23:13:09.431Z,19.11
2018-05-06T23:15:37.433Z,19.38
2018-05-06T23:18:05.509Z,19.42
2018-05-06T23:20:33.623Z,19.11
2018-05-06T23:23:01.683Z,18.99
2018-05-06T23:25:29.658Z,19.21
2018-05-06T23:27:57.799Z,19.42
2018-05-06T23:30:25.835Z,19.63
2018-05-06T23:32:53.911Z,18.95
2018-05-06T23:35:21.945Z,19.33
2018-05-06T23:37:50.072Z,18.72
2018-05-06T23:40:18.109Z,19.16
2018-05-06T23:42:46.133Z,18.69
2018-05-06T23:45:14.182Z,18.71
2018-05-06T23:47:42.353Z,18.49
2018-05-06T23:50:10.462Z,18.27
2018-05-06T23:52:38.546Z,18.34
2018-05-06T23:55:06.571Z,18.26
2018-05-06T23:57:34.626Z,18.62
